sensor_id;sensor_type;location;lat;lon;timestamp;pressure;altitude;pressure_sealevel;temperature;humidity
70411;BME280;57832;46.038;11.398;2023-03-01T00:01:23;97232.13;;;-1.52;100.00
70411;BME280;57832;46.038;11.398;2023-03-01T00:03:51;97230.09;;;-1.32;100.00
70411;BME280;57832;46.038;11.398;2023-03-01T00:06:17;97230.19;;;-1.66;100.00
70411;BME280;57832;46.038;11.398;2023-03-01T00:08:42;97227.38;;;-1.81;100.00
70411;BME280;57832;46.038;11.398;2023-03-01T00:11:21;97230.97;;;-1.66;100.00
70411;BME280;57832;46.038;11.398;2023-03-01T00:13:48;97229.53;;;-1.69;100.00
70411;BME280;57832;46.038;11.398;2023-03-01T00:16:20;97235.03;;;-1.39;100.00
70411;BME280;57832;46.038;11.398;2023-03-01T00:18:46;97226.84;;;-1.34;100.00
70411;BME280;57832;46.038;11.398;2023-03-01T00:21:11;97226.69;;;-1.41;100.00
70411;BME280;57832;46.038;11.398;2023-03-01T00:23:38;97230.88;;;-1.23;100.00
70411;BME280;57832;46.038;11.398;2023-03-01T00:26:09;97229.53;;;-1.60;100.00
70411;BME280;57832;46.038;11.398;2023-03-01T00:28:36;97223.50;;;-1.35;100.00
70411;BME280;57832;46.038;11.398;2023-03-01T00:31:07;97227.03;;;-1.27;100.00
70411;BME280;57832;46.038;11.398;2023-03-01T00:33:33;97222.38;;;-1.32;100.00
70411;BME280;57832;46.038;11.398;2023-03-01T00:35:59;97225.41;;;-1.45;100.00
70411;BME280;57832;46.038;11.398;2023-03-01T00:38:25;97219.78;;;-1.32;100.00
70411;BME280;57832;46.038;11.398;2023-03-01T00:40:51;97217.00;;;-1.63;100.00
70411;BME280;57832;46.038;11.398;2023-03-01T00:43:17;97214.94;;;-1.60;100.00
70411;BME280;57832;46.038;11.398;2023-03-01T00:45:42;97213.94;;;-1.67;100.00
70411;BME280;57832;46.038;11.398;2023-03-01T00:48:08;97206.47;;;-1.95;100.00
70411;BME280;57832;46.038;11.398;2023-03-01T00:50:33;97201.72;;;-1.73;100.00
70411;BME280;57832;46.038;11.398;2023-03-01T00:52:59;97198.31;;;-1.74;100.00
70411;BME280;57832;46.038;11.398;2023-03-01T00:55:24;97192.22;;;-1.73;100.00
70411;BME280;57832;46.038;11.398;2023-03-01T00:57:51;97197.88;;;-1.61;100.00
70411;BME280;57832;46.038;11.398;2023-03-01T01:00:17;97191.00;;;-1.44;100.00
70411;BME280;57832;46.038;11.398;2023-03-01T01:02:43;97193.00;;;-1.72;100.00
70411;BME280;57832;46.038;11.398;2023-03-01T01:05:09;97185.25;;;-1.97;100.00
70411;BME280;57832;46.038;11.398;2023-03-01T01:07:35;97193.31;;;-1.83;100.00
70411;BME280;57832;46.038;11.398;2023-03-01T01:10:00;97191.00;;;-2.03;100.00
70411;BME280;57832;46.038;11.398;2023-03-01T01:12:26;97184.31;;;-1.96;100.00
70411;BME280;57832;46.038;11.398;2023-03-01T01:14:51;97189.91;;;-1.92;100.00
70411;BME280;57832;46.038;11.398;2023-03-01T01:17:17;97179.97;;;-1.87;100.00
70411;BME280;57832;46.038;11.398;2023-03-01T01:19:43;97180.31;;;-1.82;100.00
70411;BME280;57832;46.038;11.398;2023-03-01T01:22:08;97166.75;;;-2.00;100.00
70411;BME280;57832;46.038;11.398;2023-03-01T01:24:34;97168.63;;;-2.19;100.00
70411;BME280;57832;46.038;11.398;2023-03-01T01:27:00;97155.94;;;-2.21;100.00
70411;BME280;57832;46.038;11.398;2023-03-01T01:29:25;97154.81;;;-2.26;100.00
70411;BME280;57832;46.038;11.398;2023-03-01T01:31:51;97147.91;;;-2.17;100.00
70411;BME280;57832;46.038;11.398;2023-03-01T01:34:19;97143.19;;;-1.88;100.00
70411;BME280;57832;46.038;11.398;2023-03-01T01:36:54;97137.09;;;-1.87;100.00
70411;BME280;57832;46.038;11.398;2023-03-01T01:39:20;97141.41;;;-1.79;100.00
70411;BME280;57832;46.038;11.398;2023-03-01T01:41:46;97130.75;;;-2.17;100.00
70411;BME280;57832;46.038;11.398;2023-03-01T01:51:45;97132.38;;;-2.08;100.00
70411;BME280;57832;46.038;11.398;2023-03-01T01:54:23;97134.09;;;-2.25;100.00
70411;BME280;57832;46.038;11.398;2023-03-01T01:57:05;97133.56;;;-2.37;100.00
70411;BME280;57832;46.038;11.398;2023-03-01T01:59:33;97137.44;;;-2.24;100.00
70411;BME280;57832;46.038;11.398;2023-03-01T02:02:00;97125.09;;;-2.21;100.00
70411;BME280;57832;46.038;11.398;2023-03-01T02:04:28;97130.06;;;-2.19;100.00
70411;BME280;57832;46.038;11.398;2023-03-01T02:07:17;97135.22;;;-2.19;100.00
70411;BME280;57832;46.038;11.398;2023-03-01T02:09:48;97128.00;;;-2.24;100.00
70411;BME280;57832;46.038;11.398;2023-03-01T02:12:15;97124.72;;;-2.42;100.00
70411;BME280;57832;46.038;11.398;2023-03-01T02:14:42;97118.69;;;-2.59;100.00
70411;BME280;57832;46.038;11.398;2023-03-01T02:17:09;97111.34;;;-2.54;100.00
70411;BME280;57832;46.038;11.398;2023-03-01T02:20:08;97116.41;;;-2.28;100.00
70411;BME280;57832;46.038;11.398;2023-03-01T02:22:35;97118.63;;;-2.41;100.00
70411;BME280;57832;46.038;11.398;2023-03-01T02:27:46;97109.28;;;-2.50;100.00
70411;BME280;57832;46.038;11.398;2023-03-01T02:30:14;97103.75;;;-2.64;100.00
70411;BME280;57832;46.038;11.398;2023-03-01T02:32:41;97103.81;;;-2.82;100.00
70411;BME280;57832;46.038;11.398;2023-03-01T02:35:10;97099.94;;;-2.52;100.00
70411;BME280;57832;46.038;11.398;2023-03-01T02:37:37;97090.38;;;-2.33;100.00
70411;BME280;57832;46.038;11.398;2023-03-01T02:40:08;97097.00;;;-2.06;100.00
70411;BME280;57832;46.038;11.398;2023-03-01T02:42:47;97090.91;;;-2.21;100.00
70411;BME280;57832;46.038;11.398;2023-03-01T02:45:15;97085.44;;;-2.02;100.00
70411;BME280;57832;46.038;11.398;2023-03-01T02:47:40;97085.59;;;-2.11;100.00
70411;BME280;57832;46.038;11.398;2023-03-01T02:55:31;97072.16;;;-2.56;100.00
70411;BME280;57832;46.038;11.398;2023-03-01T02:57:56;97075.13;;;-2.34;100.00
70411;BME280;57832;46.038;11.398;2023-03-01T03:00:30;97065.91;;;-2.54;100.00
70411;BME280;57832;46.038;11.398;2023-03-01T03:02:59;97066.72;;;-2.53;100.00
70411;BME280;57832;46.038;11.398;2023-03-01T03:05:27;97060.97;;;-2.39;100.00
70411;BME280;57832;46.038;11.398;2023-03-01T03:07:54;97063.69;;;-2.40;100.00
70411;BME280;57832;46.038;11.398;2023-03-01T03:10:26;97054.19;;;-2.48;100.00
70411;BME280;57832;46.038;11.398;2023-03-01T03:12:57;97052.97;;;-2.36;100.00
70411;BME280;57832;46.038;11.398;2023-03-01T03:15:24;97054.19;;;-2.48;100.00
70411;BME280;57832;46.038;11.398;2023-03-01T03:17:51;97056.56;;;-2.63;100.00
70411;BME280;57832;46.038;11.398;2023-03-01T03:20:17;97045.16;;;-2.60;100.00
70411;BME280;57832;46.038;11.398;2023-03-01T03:22:48;97046.47;;;-2.56;100.00
70411;BME280;57832;46.038;11.398;2023-03-01T03:25:14;97046.34;;;-2.46;100.00
70411;BME280;57832;46.038;11.398;2023-03-01T03:27:42;97045.00;;;-2.67;100.00
70411;BME280;57832;46.038;11.398;2023-03-01T03:30:12;97041.91;;;-2.71;100.00
70411;BME280;57832;46.038;11.398;2023-03-01T03:32:43;97043.78;;;-2.46;100.00
70411;BME280;57832;46.038;11.398;2023-03-01T03:35:31;97049.75;;;-2.80;100.00
70411;BME280;57832;46.038;11.398;2023-03-01T03:38:04;97052.53;;;-2.65;100.00
70411;BME280;57832;46.038;11.398;2023-03-01T03:40:51;97044.31;;;-2.77;100.00
70411;BME280;57832;46.038;11.398;2023-03-01T03:43:22;97036.66;;;-2.69;100.00
70411;BME280;57832;46.038;11.398;2023-03-01T03:45:50;97046.44;;;-2.64;100.00
70411;BME280;57832;46.038;11.398;2023-03-01T03:48:16;97035.63;;;-2.84;100.00
70411;BME280;57832;46.038;11.398;2023-03-01T03:50:47;97043.69;;;-2.71;100.00
70411;BME280;57832;46.038;11.398;2023-03-01T03:53:13;97040.63;;;-2.75;100.00
70411;BME280;57832;46.038;11.398;2023-03-01T03:55:39;97038.28;;;-2.60;100.00
70411;BME280;57832;46.038;11.398;2023-03-01T03:58:06;97041.31;;;-2.56;100.00
70411;BME280;57832;46.038;11.398;2023-03-01T04:00:38;97039.97;;;-2.85;100.00
70411;BME280;57832;46.038;11.398;2023-03-01T04:03:04;97041.78;;;-2.69;100.00
70411;BME280;57832;46.038;11.398;2023-03-01T04:05:30;97035.91;;;-2.53;100.00
70411;BME280;57832;46.038;11.398;2023-03-01T04:07:56;97037.16;;;-2.57;100.00
70411;BME280;57832;46.038;11.398;2023-03-01T04:10:34;97038.56;;;-2.71;100.00
70411;BME280;57832;46.038;11.398;2023-03-01T04:13:00;97032.44;;;-2.78;100.00
70411;BME280;57832;46.038;11.398;2023-03-01T04:15:26;97039.66;;;-2.74;100.00
70411;BME280;57832;46.038;11.398;2023-03-01T04:17:53;97035.44;;;-2.91;100.00
70411;BME280;57832;46.038;11.398;2023-03-01T04:20:21;97034.47;;;-2.90;100.00
70411;BME280;57832;46.038;11.398;2023-03-01T04:25:40;97035.84;;;-3.04;100.00
70411;BME280;57832;46.038;11.398;2023-03-01T04:28:06;97032.00;;;-2.65;100.00
70411;BME280;57832;46.038;11.398;2023-03-01T04:30:32;97026.41;;;-2.61;100.00
70411;BME280;57832;46.038;11.398;2023-03-01T04:33:10;97020.34;;;-2.43;100.00
70411;BME280;57832;46.038;11.398;2023-03-01T04:35:36;97026.97;;;-2.83;100.00
70411;BME280;57832;46.038;11.398;2023-03-01T04:38:03;97025.75;;;-2.63;100.00
70411;BME280;57832;46.038;11.398;2023-03-01T04:40:29;97027.00;;;-2.67;100.00
70411;BME280;57832;46.038;11.398;2023-03-01T04:42:54;97023.00;;;-2.70;100.00
70411;BME280;57832;46.038;11.398;2023-03-01T04:45:20;97021.59;;;-2.64;100.00
70411;BME280;57832;46.038;11.398;2023-03-01T04:47:46;97021.44;;;-2.62;100.00
70411;BME280;57832;46.038;11.398;2023-03-01T04:50:14;97017.44;;;-2.48;100.00
70411;BME280;57832;46.038;11.398;2023-03-01T04:52:40;97016.91;;;-2.69;100.00
70411;BME280;57832;46.038;11.398;2023-03-01T04:55:06;97017.75;;;-2.52;100.00
70411;BME280;57832;46.038;11.398;2023-03-01T04:57:32;96999.00;;;-2.36;100.00
70411;BME280;57832;46.038;11.398;2023-03-01T04:59:58;97005.34;;;-2.73;100.00
70411;BME280;57832;46.038;11.398;2023-03-01T05:02:24;97012.75;;;-2.61;100.00
70411;BME280;57832;46.038;11.398;2023-03-01T05:04:49;97013.19;;;-2.74;100.00
70411;BME280;57832;46.038;11.398;2023-03-01T05:07:15;97010.44;;;-2.81;100.00
70411;BME280;57832;46.038;11.398;2023-03-01T05:09:46;97011.63;;;-2.59;100.00
70411;BME280;57832;46.038;11.398;2023-03-01T05:12:12;97008.88;;;-2.65;100.00
70411;BME280;57832;46.038;11.398;2023-03-01T05:14:37;97016.28;;;-2.62;100.00
70411;BME280;57832;46.038;11.398;2023-03-01T05:17:03;97010.22;;;-2.53;100.00
70411;BME280;57832;46.038;11.398;2023-03-01T05:19:30;97018.53;;;-2.67;100.00
70411;BME280;57832;46.038;11.398;2023-03-01T05:21:56;97019.03;;;-2.47;100.00
70411;BME280;57832;46.038;11.398;2023-03-01T05:24:33;97010.16;;;-2.70;100.00
70411;BME280;57832;46.038;11.398;2023-03-01T05:27:00;97005.19;;;-2.71;100.00
70411;BME280;57832;46.038;11.398;2023-03-01T05:29:27;97003.09;;;-2.76;100.00
70411;BME280;57832;46.038;11.398;2023-03-01T05:31:58;96997.44;;;-2.88;100.00
70411;BME280;57832;46.038;11.398;2023-03-01T05:34:30;96997.28;;;-2.78;100.00
70411;BME280;57832;46.038;11.398;2023-03-01T05:36:57;96997.13;;;-2.76;100.00
70411;BME280;57832;46.038;11.398;2023-03-01T05:39:25;96992.25;;;-2.45;100.00
70411;BME280;57832;46.038;11.398;2023-03-01T05:41:55;96991.06;;;-2.59;100.00
70411;BME280;57832;46.038;11.398;2023-03-01T05:44:22;96982.59;;;-2.51;100.00
70411;BME280;57832;46.038;11.398;2023-03-01T05:46:47;96983.91;;;-2.30;100.00
70411;BME280;57832;46.038;11.398;2023-03-01T05:49:13;96983.91;;;-2.22;100.00
70411;BME280;57832;46.038;11.398;2023-03-01T05:51:42;96979.06;;;-2.33;100.00
70411;BME280;57832;46.038;11.398;2023-03-01T05:54:10;96977.50;;;-2.18;100.00
70411;BME280;57832;46.038;11.398;2023-03-01T05:56:37;96985.81;;;-2.24;100.00
70411;BME280;57832;46.038;11.398;2023-03-01T05:59:04;96985.03;;;-2.25;100.00
70411;BME280;57832;46.038;11.398;2023-03-01T06:01:31;96987.91;;;-2.36;100.00
70411;BME280;57832;46.038;11.398;2023-03-01T06:03:56;96992.41;;;-2.30;100.00
70411;BME280;57832;46.038;11.398;2023-03-01T06:06:23;96996.91;;;-2.32;100.00
70411;BME280;57832;46.038;11.398;2023-03-01T06:08:49;97007.22;;;-2.15;100.00
70411;BME280;57832;46.038;11.398;2023-03-01T06:11:15;97008.00;;;-2.07;100.00
70411;BME280;57832;46.038;11.398;2023-03-01T06:13:42;97010.28;;;-2.04;100.00
70411;BME280;57832;46.038;11.398;2023-03-01T06:16:08;97001.59;;;-1.86;100.00
70411;BME280;57832;46.038;11.398;2023-03-01T06:18:33;97006.72;;;-1.86;100.00
70411;BME280;57832;46.038;11.398;2023-03-01T06:20:59;97025.34;;;-1.84;100.00
70411;BME280;57832;46.038;11.398;2023-03-01T06:23:25;97020.38;;;-1.86;100.00
70411;BME280;57832;46.038;11.398;2023-03-01T06:25:50;97031.66;;;-1.87;100.00
70411;BME280;57832;46.038;11.398;2023-03-01T06:28:16;97039.81;;;-1.75;100.00
70411;BME280;57832;46.038;11.398;2023-03-01T06:30:42;97041.59;;;-1.67;100.00
70411;BME280;57832;46.038;11.398;2023-03-01T06:33:07;97049.59;;;-1.45;100.00
70411;BME280;57832;46.038;11.398;2023-03-01T06:35:33;97047.91;;;-0.97;100.00
70411;BME280;57832;46.038;11.398;2023-03-01T06:38:01;97050.38;;;-1.20;100.00
70411;BME280;57832;46.038;11.398;2023-03-01T06:40:27;97048.97;;;-0.83;100.00
70411;BME280;57832;46.038;11.398;2023-03-01T06:42:52;97037.31;;;-0.62;100.00
70411;BME280;57832;46.038;11.398;2023-03-01T06:45:19;97039.06;;;-0.63;100.00
70411;BME280;57832;46.038;11.398;2023-03-01T06:47:45;97039.69;;;-0.53;100.00
70411;BME280;57832;46.038;11.398;2023-03-01T06:50:11;97030.59;;;-0.40;100.00
70411;BME280;57832;46.038;11.398;2023-03-01T06:52:37;97036.09;;;-0.20;100.00
70411;BME280;57832;46.038;11.398;2023-03-01T06:55:03;97023.31;;;-0.13;100.00
70411;BME280;57832;46.038;11.398;2023-03-01T06:57:29;97030.41;;;-0.39;100.00
70411;BME280;57832;46.038;11.398;2023-03-01T06:59:54;97026.88;;;-0.38;100.00
70411;BME280;57832;46.038;11.398;2023-03-01T07:02:20;97016.28;;;0.04;100.00
70411;BME280;57832;46.038;11.398;2023-03-01T07:04:46;97001.19;;;0.39;100.00
70411;BME280;57832;46.038;11.398;2023-03-01T07:07:13;96994.25;;;0.54;100.00
70411;BME280;57832;46.038;11.398;2023-03-01T07:09:39;96991.38;;;0.49;100.00
70411;BME280;57832;46.038;11.398;2023-03-01T07:12:04;96999.69;;;0.59;100.00
70411;BME280;57832;46.038;11.398;2023-03-01T07:14:30;96992.38;;;0.63;100.00
70411;BME280;57832;46.038;11.398;2023-03-01T07:16:56;96981.78;;;0.73;100.00
70411;BME280;57832;46.038;11.398;2023-03-01T07:19:22;96990.16;;;0.75;100.00
70411;BME280;57832;46.038;11.398;2023-03-01T07:21:47;96990.06;;;0.98;100.00
70411;BME280;57832;46.038;11.398;2023-03-01T07:24:13;96995.22;;;0.98;100.00
70411;BME280;57832;46.038;11.398;2023-03-01T07:26:39;96999.09;;;1.39;100.00
70411;BME280;57832;46.038;11.398;2023-03-01T07:29:06;96997.13;;;1.62;100.00
70411;BME280;57832;46.038;11.398;2023-03-01T07:31:32;96999.91;;;1.61;100.00
70411;BME280;57832;46.038;11.398;2023-03-01T07:33:58;97003.56;;;1.30;100.00
70411;BME280;57832;46.038;11.398;2023-03-01T07:36:24;97018.81;;;1.25;100.00
70411;BME280;57832;46.038;11.398;2023-03-01T07:38:49;97013.81;;;1.23;100.00
70411;BME280;57832;46.038;11.398;2023-03-01T07:41:15;97014.47;;;0.95;100.00
70411;BME280;57832;46.038;11.398;2023-03-01T07:43:40;97008.59;;;1.02;100.00
70411;BME280;57832;46.038;11.398;2023-03-01T07:46:06;97000.41;;;0.68;100.00
70411;BME280;57832;46.038;11.398;2023-03-01T07:48:32;97004.47;;;0.47;100.00
70411;BME280;57832;46.038;11.398;2023-03-01T07:51:03;97010.38;;;0.56;100.00
70411;BME280;57832;46.038;11.398;2023-03-01T07:53:30;97003.47;;;1.23;100.00
70411;BME280;57832;46.038;11.398;2023-03-01T07:58:31;96995.31;;;1.05;100.00
70411;BME280;57832;46.038;11.398;2023-03-01T08:01:02;97001.56;;;0.80;100.00
70411;BME280;57832;46.038;11.398;2023-03-01T08:03:28;97009.22;;;0.89;100.00
70411;BME280;57832;46.038;11.398;2023-03-01T08:05:53;96994.78;;;0.79;100.00
70411;BME280;57832;46.038;11.398;2023-03-01T08:08:19;96995.09;;;1.36;100.00
70411;BME280;57832;46.038;11.398;2023-03-01T08:10:44;96996.22;;;1.70;100.00
70411;BME280;57832;46.038;11.398;2023-03-01T08:13:10;96992.22;;;1.67;100.00
70411;BME280;57832;46.038;11.398;2023-03-01T08:15:35;96986.47;;;2.15;100.00
70411;BME280;57832;46.038;11.398;2023-03-01T08:18:01;96970.75;;;2.74;100.00
70411;BME280;57832;46.038;11.398;2023-03-01T08:20:26;96971.34;;;2.41;100.00
70411;BME280;57832;46.038;11.398;2023-03-01T08:22:52;96970.22;;;2.22;100.00
70411;BME280;57832;46.038;11.398;2023-03-01T08:25:17;96972.84;;;2.28;100.00
70411;BME280;57832;46.038;11.398;2023-03-01T08:27:43;96962.91;;;2.60;100.00
70411;BME280;57832;46.038;11.398;2023-03-01T08:30:09;96961.94;;;3.10;100.00
70411;BME280;57832;46.038;11.398;2023-03-01T08:32:36;96962.09;;;2.60;100.00
70411;BME280;57832;46.038;11.398;2023-03-01T08:35:02;96963.13;;;2.65;100.00
70411;BME280;57832;46.038;11.398;2023-03-01T08:37:28;96959.47;;;3.50;100.00
70411;BME280;57832;46.038;11.398;2023-03-01T08:39:56;96953.16;;;3.99;100.00
70411;BME280;57832;46.038;11.398;2023-03-01T08:42:21;96951.88;;;5.98;100.00
70411;BME280;57832;46.038;11.398;2023-03-01T08:44:47;96942.59;;;5.45;100.00
70411;BME280;57832;46.038;11.398;2023-03-01T08:47:13;96943.72;;;5.56;100.00
70411;BME280;57832;46.038;11.398;2023-03-01T08:49:39;96935.78;;;6.52;100.00
70411;BME280;57832;46.038;11.398;2023-03-01T08:52:04;96929.00;;;7.37;100.00
70411;BME280;57832;46.038;11.398;2023-03-01T08:54:30;96928.66;;;7.76;100.00
70411;BME280;57832;46.038;11.398;2023-03-01T08:56:55;96923.13;;;6.74;100.00
70411;BME280;57832;46.038;11.398;2023-03-01T08:59:25;96914.22;;;5.94;100.00
70411;BME280;57832;46.038;11.398;2023-03-01T09:01:50;96908.91;;;5.82;100.00
70411;BME280;57832;46.038;11.398;2023-03-01T09:04:16;96903.63;;;5.39;100.00
70411;BME280;57832;46.038;11.398;2023-03-01T09:06:42;96894.16;;;6.45;100.00
70411;BME280;57832;46.038;11.398;2023-03-01T09:09:13;96886.97;;;6.22;100.00
70411;BME280;57832;46.038;11.398;2023-03-01T09:11:40;96878.59;;;5.38;100.00
70411;BME280;57832;46.038;11.398;2023-03-01T09:14:06;96880.53;;;5.10;100.00
70411;BME280;57832;46.038;11.398;2023-03-01T09:16:32;96881.47;;;4.84;100.00
70411;BME280;57832;46.038;11.398;2023-03-01T09:19:02;96875.25;;;4.85;100.00
70411;BME280;57832;46.038;11.398;2023-03-01T09:21:28;96869.03;;;4.41;100.00
70411;BME280;57832;46.038;11.398;2023-03-01T09:23:55;96862.13;;;4.80;100.00
70411;BME280;57832;46.038;11.398;2023-03-01T09:26:22;96867.28;;;4.87;100.00
70411;BME280;57832;46.038;11.398;2023-03-01T09:28:50;96867.34;;;5.94;100.00
70411;BME280;57832;46.038;11.398;2023-03-01T09:31:18;96856.84;;;6.08;100.00
70411;BME280;57832;46.038;11.398;2023-03-01T09:33:46;96856.69;;;6.28;100.00
70411;BME280;57832;46.038;11.398;2023-03-01T09:36:15;96857.31;;;5.47;100.00
70411;BME280;57832;46.038;11.398;2023-03-01T09:38:42;96846.66;;;5.56;100.00
70411;BME280;57832;46.038;11.398;2023-03-01T09:43:50;96846.66;;;4.85;100.00
70411;BME280;57832;46.038;11.398;2023-03-01T09:46:20;96844.69;;;5.51;100.00
70411;BME280;57832;46.038;11.398;2023-03-01T09:48:57;96842.19;;;5.88;100.00
70411;BME280;57832;46.038;11.398;2023-03-01T09:51:34;96837.56;;;5.08;100.00
70411;BME280;57832;46.038;11.398;2023-03-01T09:54:04;96834.63;;;4.97;100.00
70411;BME280;57832;46.038;11.398;2023-03-01T09:59:28;96822.66;;;5.53;100.00
70411;BME280;57832;46.038;11.398;2023-03-01T10:07:25;96817.19;;;5.62;100.00
70411;BME280;57832;46.038;11.398;2023-03-01T10:09:52;96815.38;;;5.62;100.00
70411;BME280;57832;46.038;11.398;2023-03-01T10:12:20;96815.22;;;5.57;100.00
70411;BME280;57832;46.038;11.398;2023-03-01T10:14:51;96814.78;;;5.60;100.00
70411;BME280;57832;46.038;11.398;2023-03-01T10:19:47;96802.16;;;6.26;100.00
70411;BME280;57832;46.038;11.398;2023-03-01T10:22:28;96800.91;;;6.96;100.00
70411;BME280;57832;46.038;11.398;2023-03-01T10:24:56;96780.81;;;7.27;100.00
70411;BME280;57832;46.038;11.398;2023-03-01T10:27:51;96778.16;;;7.15;100.00
70411;BME280;57832;46.038;11.398;2023-03-01T10:30:35;96770.88;;;7.48;100.00
70411;BME280;57832;46.038;11.398;2023-03-01T10:33:13;96766.44;;;7.60;100.00
70411;BME280;57832;46.038;11.398;2023-03-01T10:35:41;96760.53;;;6.87;100.00
70411;BME280;57832;46.038;11.398;2023-03-01T10:38:09;96764.31;;;7.03;100.00
70411;BME280;57832;46.038;11.398;2023-03-01T10:40:53;96753.81;;;7.33;100.00
70411;BME280;57832;46.038;11.398;2023-03-01T10:43:19;96752.09;;;7.27;100.00
70411;BME280;57832;46.038;11.398;2023-03-01T10:45:45;96755.53;;;7.51;100.00
70411;BME280;57832;46.038;11.398;2023-03-01T10:50:43;96747.38;;;7.36;100.00
70411;BME280;57832;46.038;11.398;2023-03-01T10:53:36;96740.19;;;7.31;100.00
70411;BME280;57832;46.038;11.398;2023-03-01T10:56:06;96735.72;;;6.96;100.00
70411;BME280;57832;46.038;11.398;2023-03-01T10:58:33;96736.44;;;7.15;100.00
70411;BME280;57832;46.038;11.398;2023-03-01T11:01:03;96723.38;;;7.03;100.00
70411;BME280;57832;46.038;11.398;2023-03-01T11:03:32;96733.38;;;7.07;100.00
70411;BME280;57832;46.038;11.398;2023-03-01T11:06:01;96731.84;;;6.87;100.00
70411;BME280;57832;46.038;11.398;2023-03-01T11:13:33;96748.88;;;6.59;100.00
70411;BME280;57832;46.038;11.398;2023-03-01T11:16:04;96747.06;;;6.60;100.00
70411;BME280;57832;46.038;11.398;2023-03-01T11:18:31;96748.50;;;6.25;100.00
70411;BME280;57832;46.038;11.398;2023-03-01T11:20:58;96756.09;;;6.27;100.00
70411;BME280;57832;46.038;11.398;2023-03-01T11:23:28;96747.63;;;6.31;100.00
70411;BME280;57832;46.038;11.398;2023-03-01T11:26:05;96752.44;;;6.46;100.00
70411;BME280;57832;46.038;11.398;2023-03-01T11:28:36;96744.59;;;6.34;100.00
70411;BME280;57832;46.038;11.398;2023-03-01T11:31:07;96742.44;;;6.62;100.00
70411;BME280;57832;46.038;11.398;2023-03-01T11:33:44;96738.66;;;6.88;100.00
70411;BME280;57832;46.038;11.398;2023-03-01T11:36:35;96742.75;;;6.84;100.00
70411;BME280;57832;46.038;11.398;2023-03-01T11:45:08;96724.78;;;6.64;100.00
70411;BME280;57832;46.038;11.398;2023-03-01T11:47:59;96733.16;;;6.66;100.00
70411;BME280;57832;46.038;11.398;2023-03-01T11:50:39;96721.94;;;6.65;100.00
70411;BME280;57832;46.038;11.398;2023-03-01T11:56:03;96721.06;;;6.83;100.00
70411;BME280;57832;46.038;11.398;2023-03-01T11:59:12;96718.00;;;6.75;100.00
70411;BME280;57832;46.038;11.398;2023-03-01T12:10:26;96726.22;;;7.02;100.00
70411;BME280;57832;46.038;11.398;2023-03-01T12:13:36;96726.06;;;6.85;100.00
70411;BME280;57832;46.038;11.398;2023-03-01T12:16:49;96732.13;;;6.67;100.00
70411;BME280;57832;46.038;11.398;2023-03-01T12:25:25;96726.09;;;6.55;100.00
70411;BME280;57832;46.038;11.398;2023-03-01T12:28:09;96718.59;;;6.58;100.00
70411;BME280;57832;46.038;11.398;2023-03-01T12:33:25;96713.63;;;6.57;100.00
70411;BME280;57832;46.038;11.398;2023-03-01T12:41:47;96713.78;;;6.74;100.00
70411;BME280;57832;46.038;11.398;2023-03-01T12:47:16;96710.63;;;6.41;100.00
70411;BME280;57832;46.038;11.398;2023-03-01T12:49:49;96710.28;;;6.38;100.00
70411;BME280;57832;46.038;11.398;2023-03-01T12:55:00;96711.06;;;6.38;100.00
70411;BME280;57832;46.038;11.398;2023-03-01T12:57:32;96714.97;;;6.29;100.00
70411;BME280;57832;46.038;11.398;2023-03-01T13:10:50;96726.94;;;6.18;100.00
70411;BME280;57832;46.038;11.398;2023-03-01T13:13:26;96729.25;;;6.26;100.00
70411;BME280;57832;46.038;11.398;2023-03-01T13:15:52;96732.34;;;6.35;100.00
70411;BME280;57832;46.038;11.398;2023-03-01T13:20:49;96718.56;;;6.46;100.00
70411;BME280;57832;46.038;11.398;2023-03-01T13:30:59;96706.25;;;6.53;100.00
70411;BME280;57832;46.038;11.398;2023-03-01T13:35:58;96698.84;;;6.81;100.00
70411;BME280;57832;46.038;11.398;2023-03-01T13:41:04;96710.41;;;6.73;100.00
70411;BME280;57832;46.038;11.398;2023-03-01T13:43:41;96704.16;;;6.74;100.00
70411;BME280;57832;46.038;11.398;2023-03-01T13:46:10;96708.72;;;6.79;100.00
70411;BME280;57832;46.038;11.398;2023-03-01T13:48:37;96699.31;;;6.90;100.00
70411;BME280;57832;46.038;11.398;2023-03-01T13:51:12;96702.25;;;6.81;100.00
70411;BME280;57832;46.038;11.398;2023-03-01T13:53:44;96697.47;;;6.78;100.00
70411;BME280;57832;46.038;11.398;2023-03-01T13:56:36;96694.09;;;6.78;100.00
70411;BME280;57832;46.038;11.398;2023-03-01T13:59:06;96691.13;;;6.74;100.00
70411;BME280;57832;46.038;11.398;2023-03-01T14:01:40;96684.66;;;6.77;100.00
70411;BME280;57832;46.038;11.398;2023-03-01T14:06:45;96687.63;;;6.80;100.00
70411;BME280;57832;46.038;11.398;2023-03-01T14:09:20;96690.50;;;7.02;100.00
70411;BME280;57832;46.038;11.398;2023-03-01T14:14:40;96676.78;;;7.19;100.00
70411;BME280;57832;46.038;11.398;2023-03-01T14:19:47;96669.31;;;7.23;100.00
70411;BME280;57832;46.038;11.398;2023-03-01T14:24:50;96660.56;;;7.29;100.00
70411;BME280;57832;46.038;11.398;2023-03-01T14:27:17;96660.78;;;7.39;100.00
70411;BME280;57832;46.038;11.398;2023-03-01T14:29:45;96656.81;;;7.36;100.00
70411;BME280;57832;46.038;11.398;2023-03-01T14:32:26;96654.78;;;7.50;100.00
70411;BME280;57832;46.038;11.398;2023-03-01T14:34:51;96651.94;;;7.52;100.00
70411;BME280;57832;46.038;11.398;2023-03-01T14:37:33;96649.75;;;7.73;100.00
70411;BME280;57832;46.038;11.398;2023-03-01T14:40:01;96645.75;;;7.82;100.00
70411;BME280;57832;46.038;11.398;2023-03-01T14:42:30;96652.56;;;7.83;100.00
70411;BME280;57832;46.038;11.398;2023-03-01T14:45:00;96644.72;;;7.83;100.00
70411;BME280;57832;46.038;11.398;2023-03-01T14:47:30;96641.75;;;7.91;100.00
70411;BME280;57832;46.038;11.398;2023-03-01T14:49:59;96640.25;;;7.95;100.00
70411;BME280;57832;46.038;11.398;2023-03-01T14:52:56;96637.53;;;7.90;100.00